createdAt,value
2017-12-01T00:00:42.043Z,97019.93
2017-12-01T00:03:10.336Z,97012.14
2017-12-01T00:05:39.402Z,97012.52
2017-12-01T00:08:07.710Z,97025.11
2017-12-01T00:10:36.000Z,97028.93
2017-12-01T00:13:04.288Z,97031.06
2017-12-01T00:15:32.609Z,97024.84
2017-12-01T00:18:00.913Z,97023.50
2017-12-01T00:20:29.209Z,97029.47
2017-12-01T00:22:58.282Z,97033.66
2017-12-01T00:25:27.356Z,97033.28
2017-12-01T00:27:55.672Z,97037.30
2017-12-01T00:30:23.957Z,97038.57
2017-12-01T00:32:52.265Z,97039.84
2017-12-01T00:35:20.553Z,97039.45
2017-12-01T00:37:48.825Z,97043.18
2017-12-01T00:40:17.121Z,97044.08
2017-12-01T00:42:46.174Z,97052.16
2017-12-01T00:45:14.470Z,97048.45
2017-12-01T00:47:42.769Z,97052.19
2017-12-01T00:50:11.930Z,97054.35
2017-12-01T00:52:40.212Z,97058.17
2017-12-01T00:55:08.525Z,97062.50
2017-12-01T00:57:36.832Z,97058.75
2017-12-01T01:00:05.119Z,97061.46
2017-12-01T01:02:33.409Z,97067.34
2017-12-01T01:05:01.700Z,97066.66
2017-12-01T01:07:29.993Z,97069.29
2017-12-01T01:09:58.303Z,97077.86
2017-12-01T01:12:27.149Z,97075.33
2017-12-01T01:14:55.433Z,97082.52
2017-12-01T01:17:23.732Z,97087.19
2017-12-01T01:19:52.817Z,97088.66
2017-12-01T01:22:21.877Z,97093.88
2017-12-01T01:24:50.189Z,97094.41
2017-12-01T01:27:18.519Z,97095.59
2017-12-01T01:29:47.580Z,97095.64
2017-12-01T01:32:16.690Z,97101.50
2017-12-01T01:34:44.995Z,97099.12
2017-12-01T01:37:13.278Z,97110.42
2017-12-01T01:39:41.577Z,97110.31
2017-12-01T01:42:09.872Z,97111.07
2017-12-01T01:44:38.929Z,97108.97
2017-12-01T01:47:07.228Z,97115.70
2017-12-01T01:49:35.508Z,97114.91
2017-12-01T01:52:04.574Z,97122.95
2017-12-01T01:54:32.868Z,97120.13
2017-12-01T01:57:01.165Z,97122.66
2017-12-01T01:59:29.456Z,97119.31
2017-12-01T02:01:57.761Z,97119.04
2017-12-01T02:04:26.049Z,97120.77
2017-12-01T02:06:54.345Z,97124.45
2017-12-01T02:09:22.634Z,97125.94
2017-12-01T02:11:50.946Z,97129.09
2017-12-01T02:14:19.250Z,97130.57
2017-12-01T02:16:48.189Z,97133.30
2017-12-01T02:19:17.250Z,97141.88
2017-12-01T02:21:45.591Z,97143.04
2017-12-01T02:24:13.915Z,97144.38
2017-12-01T02:26:43.357Z,97143.33
2017-12-01T02:29:11.671Z,97145.02
2017-12-01T02:31:39.986Z,97146.73
2017-12-01T02:34:08.411Z,97149.75
2017-12-01T02:36:36.709Z,97145.56
2017-12-01T02:39:04.997Z,97148.09
2017-12-01T02:41:33.313Z,97149.48
2017-12-01T02:44:01.606Z,97154.72
2017-12-01T02:46:29.900Z,97157.83
2017-12-01T02:48:58.180Z,97162.48
2017-12-01T02:51:26.476Z,97167.12
2017-12-01T02:53:54.790Z,97157.92
2017-12-01T02:56:23.086Z,97159.61
2017-12-01T02:58:51.376Z,97157.95
2017-12-01T03:01:19.661Z,97165.16
2017-12-01T03:03:47.962Z,97164.88
2017-12-01T03:06:16.266Z,97171.66
2017-12-01T03:08:44.581Z,97175.94
2017-12-01T03:11:12.866Z,97180.23
2017-12-01T03:13:41.192Z,97181.50
2017-12-01T03:16:09.478Z,97185.73
2017-12-01T03:18:37.783Z,97190.00
2017-12-01T03:21:06.073Z,97190.45
2017-12-01T03:23:34.386Z,97190.82
2017-12-01T03:26:02.683Z,97198.42
2017-12-01T03:28:30.997Z,97203.13
2017-12-01T03:30:59.290Z,97200.11
2017-12-01T03:33:27.580Z,97199.98
2017-12-01T03:35:55.889Z,97201.48
2017-12-01T03:38:24.185Z,97198.11
2017-12-01T03:40:52.483Z,97206.45
2017-12-01T03:43:20.780Z,97212.44
2017-12-01T03:45:49.069Z,97213.28
2017-12-01T03:48:17.369Z,97218.13
2017-12-01T03:50:46.449Z,97221.23
2017-12-01T03:53:14.753Z,97222.14
2017-12-01T03:55:43.805Z,97222.66
2017-12-01T03:58:12.099Z,97219.73
2017-12-01T04:00:40.390Z,97226.43
2017-12-01T04:03:08.682Z,97221.88
2017-12-01T04:05:36.977Z,97226.95
2017-12-01T04:08:05.316Z,97229.91
2017-12-01T04:10:34.368Z,97213.80
2017-12-01T04:13:02.665Z,97232.83
2017-12-01T04:15:30.974Z,97234.48
2017-12-01T04:17:59.269Z,97237.89
2017-12-01T04:20:27.561Z,97243.91
2017-12-01T04:22:55.858Z,97244.84
2017-12-01T04:25:24.158Z,97245.39
2017-12-01T04:27:52.461Z,97247.72
2017-12-01T04:30:20.758Z,97246.45
2017-12-01T04:32:49.048Z,97249.99
2017-12-01T04:35:18.100Z,97255.96
2017-12-01T04:37:47.149Z,97252.55
2017-12-01T04:40:15.452Z,97255.79
2017-12-01T04:42:43.750Z,97264.75
2017-12-01T04:45:12.041Z,97265.77
2017-12-01T04:47:41.072Z,97269.64
2017-12-01T04:50:09.351Z,97269.67
2017-12-01T04:52:37.696Z,97275.89
2017-12-01T04:55:05.995Z,97278.14
2017-12-01T04:57:34.278Z,97281.64
2017-12-01T05:00:03.004Z,97282.23
2017-12-01T05:02:31.316Z,97287.80
2017-12-01T05:04:59.613Z,97297.34
2017-12-01T05:07:27.936Z,97301.60
2017-12-01T05:09:57.002Z,97304.17
2017-12-01T05:12:25.305Z,97270.99
2017-12-01T05:14:53.585Z,97319.55
2017-12-01T05:17:21.890Z,97328.88
2017-12-01T05:19:50.253Z,97329.37
2017-12-01T05:22:18.549Z,97333.14
2017-12-01T05:24:46.846Z,97331.52
2017-12-01T05:27:15.137Z,97336.67
2017-12-01T05:29:43.420Z,97342.23
2017-12-01T05:32:11.700Z,97343.02
2017-12-01T05:34:39.989Z,97349.88
2017-12-01T05:37:08.273Z,97346.06
2017-12-01T05:39:36.556Z,97353.28
2017-12-01T05:42:05.619Z,97355.69
2017-12-01T05:44:33.901Z,97357.80
2017-12-01T05:47:02.192Z,97362.16
2017-12-01T05:49:30.504Z,97368.43
2017-12-01T05:51:58.788Z,97363.06
2017-12-01T05:54:27.081Z,97371.91
2017-12-01T05:56:56.156Z,97377.76
2017-12-01T05:59:24.444Z,97377.20
2017-12-01T06:01:52.732Z,97379.03
2017-12-01T06:04:21.028Z,97384.22
2017-12-01T06:06:49.321Z,97387.48
2017-12-01T06:09:18.381Z,97388.64
2017-12-01T06:11:46.670Z,97394.14
2017-12-01T06:14:14.965Z,97399.63
2017-12-01T06:16:44.118Z,97401.74
2017-12-01T06:19:12.425Z,97404.70
2017-12-01T06:21:40.721Z,97411.53
2017-12-01T06:24:09.027Z,97414.84
2017-12-01T06:26:37.665Z,97414.48
2017-12-01T06:29:05.955Z,97412.02
2017-12-01T06:31:34.259Z,97419.45
2017-12-01T06:34:02.554Z,97420.02
2017-12-01T06:36:30.881Z,97426.39
2017-12-01T06:38:59.154Z,97429.00
2017-12-01T06:41:27.447Z,97425.90
2017-12-01T06:43:56.489Z,97438.22
2017-12-01T06:46:24.773Z,97436.73
2017-12-01T06:48:53.057Z,97440.69
2017-12-01T06:51:21.345Z,97440.30
2017-12-01T06:53:49.639Z,97448.47
2017-12-01T06:56:18.688Z,97447.17
2017-12-01T06:58:46.987Z,97464.04
2017-12-01T07:01:15.288Z,97458.03
2017-12-01T07:03:44.357Z,97465.96
2017-12-01T07:06:12.657Z,97471.31
2017-12-01T07:08:40.947Z,97468.45
2017-12-01T07:11:09.236Z,97477.00
2017-12-01T07:13:37.524Z,97481.00
2017-12-01T07:16:05.811Z,97482.42
2017-12-01T07:18:34.089Z,97486.91
2017-12-01T07:21:02.405Z,97495.09
2017-12-01T07:23:30.696Z,97494.11
2017-12-01T07:25:59.566Z,97493.69
2017-12-01T07:28:27.860Z,97500.13
2017-12-01T07:30:56.140Z,97500.63
2017-12-01T07:33:24.410Z,97504.06
2017-12-01T07:35:53.447Z,97509.21
2017-12-01T07:38:21.728Z,97510.25
2017-12-01T07:40:50.018Z,97512.00
2017-12-01T07:43:18.302Z,97520.66
2017-12-01T07:45:46.593Z,97524.43
2017-12-01T07:48:14.882Z,97528.78
2017-12-01T07:50:43.169Z,97530.89
2017-12-01T07:53:11.452Z,97533.23
2017-12-01T07:55:40.515Z,97537.08
2017-12-01T07:58:08.809Z,97541.05
2017-12-01T08:00:37.857Z,97543.31
2017-12-01T08:03:06.153Z,97556.53
2017-12-01T08:05:34.441Z,97554.53
2017-12-01T08:08:02.730Z,97557.98
2017-12-01T08:10:33.017Z,97567.67
2017-12-01T08:13:01.334Z,97567.36
2017-12-01T08:15:29.624Z,97571.94
2017-12-01T08:21:13.494Z,97579.87
2017-12-01T08:26:56.167Z,97588.44
2017-12-01T08:29:24.459Z,97590.17
2017-12-01T08:31:52.755Z,97595.35
2017-12-01T08:34:21.079Z,97596.62
2017-12-01T08:36:49.355Z,97601.38
2017-12-01T08:39:17.644Z,97602.55
2017-12-01T08:41:45.945Z,97608.43
2017-12-01T08:44:14.244Z,97612.17
2017-12-01T08:46:43.825Z,97620.20
2017-12-01T08:49:12.161Z,97627.69
2017-12-01T08:51:40.444Z,97620.09
2017-12-01T08:54:08.722Z,97624.88
2017-12-01T08:56:37.001Z,97626.34
2017-12-01T08:59:05.291Z,97630.78
2017-12-01T09:01:33.569Z,97633.16
2017-12-01T09:04:01.864Z,97635.89
2017-12-01T09:06:30.174Z,97638.78
2017-12-01T09:08:58.457Z,97646.50
2017-12-01T09:11:26.746Z,97648.00
2017-12-01T09:13:55.028Z,97654.09
2017-12-01T09:16:23.509Z,97662.11
2017-12-01T09:18:51.793Z,97660.45
2017-12-01T09:21:20.072Z,97663.80
2017-12-01T09:23:48.367Z,97671.42
2017-12-01T09:26:17.244Z,97668.95
2017-12-01T09:28:45.521Z,97673.70
2017-12-01T09:31:13.803Z,97684.00
2017-12-01T09:33:42.097Z,97685.27
2017-12-01T09:36:10.408Z,97686.99
2017-12-01T09:38:38.694Z,97688.14
2017-12-01T09:41:06.982Z,97691.03
2017-12-01T09:43:35.266Z,97688.95
2017-12-01T09:46:03.554Z,97694.45
2017-12-01T09:48:31.852Z,97693.90
2017-12-01T09:51:00.137Z,97698.48
2017-12-01T09:53:28.440Z,97706.83
2017-12-01T09:55:56.725Z,97703.02
2017-12-01T09:58:25.845Z,97709.80
2017-12-01T10:00:54.133Z,97714.06
2017-12-01T10:03:22.432Z,97713.19
2017-12-01T10:05:50.762Z,97714.06
2017-12-01T10:08:19.084Z,97713.64
2017-12-01T10:10:47.376Z,97717.03
2017-12-01T10:13:15.668Z,97717.18
2017-12-01T10:15:43.956Z,97717.64
2017-12-01T10:18:12.249Z,97725.86
2017-12-01T10:20:40.530Z,97723.22
2017-12-01T10:23:08.814Z,97731.03
2017-12-01T10:25:37.083Z,97730.69
2017-12-01T10:28:05.367Z,97726.14
2017-12-01T10:30:33.642Z,97727.91
2017-12-01T10:33:01.922Z,97737.02
2017-12-01T10:35:30.199Z,97729.03
2017-12-01T10:37:58.476Z,97737.05
2017-12-01T10:40:26.771Z,97737.55
2017-12-01T10:42:55.083Z,97737.04
2017-12-01T10:45:23.372Z,97742.20
2017-12-01T10:47:51.671Z,97746.86
2017-12-01T10:50:19.957Z,97741.73
2017-12-01T10:52:48.237Z,97745.13
2017-12-01T10:55:16.512Z,97746.35
2017-12-01T10:57:44.792Z,97753.20
2017-12-01T11:00:13.076Z,97753.47
2017-12-01T11:02:41.369Z,97752.59
2017-12-01T11:05:09.660Z,97755.89
2017-12-01T11:07:38.702Z,97756.22
2017-12-01T11:10:08.001Z,97762.34
2017-12-01T11:12:36.336Z,97766.38
2017-12-01T11:15:05.377Z,97766.61
2017-12-01T11:17:33.678Z,97773.95
2017-12-01T11:20:01.983Z,97763.81
2017-12-01T11:22:30.265Z,97775.47
2017-12-01T11:24:59.235Z,97770.47
2017-12-01T11:27:27.521Z,97772.88
2017-12-01T11:29:55.824Z,97771.88
2017-12-01T11:32:24.908Z,97771.77
2017-12-01T11:34:54.028Z,97773.80
2017-12-01T11:37:22.400Z,97778.39
2017-12-01T11:39:50.692Z,97776.41
2017-12-01T11:42:19.141Z,97780.64
2017-12-01T11:44:48.220Z,97783.70
2017-12-01T11:47:16.531Z,97782.39
2017-12-01T11:49:44.819Z,97785.94
2017-12-01T11:52:13.120Z,97785.98
2017-12-01T11:54:41.400Z,97791.92
2017-12-01T11:57:09.693Z,97796.25
2017-12-01T11:59:38.069Z,97794.20
2017-12-01T12:02:06.391Z,97803.25
2017-12-01T12:04:35.443Z,97803.01
2017-12-01T12:07:03.849Z,97808.99
2017-12-01T12:09:32.936Z,97816.90
2017-12-01T12:12:01.312Z,97802.80
2017-12-01T12:14:29.587Z,97807.25
2017-12-01T12:16:58.634Z,97811.27
2017-12-01T12:19:26.924Z,97807.99
2017-12-01T12:21:55.440Z,97817.92
2017-12-01T12:24:23.724Z,97814.70
2017-12-01T12:26:52.018Z,97813.42
2017-12-01T12:29:20.351Z,97818.41
2017-12-01T12:31:48.645Z,97822.00
2017-12-01T12:34:16.936Z,97828.70
2017-12-01T12:36:46.365Z,97824.48
2017-12-01T12:39:14.679Z,97829.61
2017-12-01T12:41:42.965Z,97829.51
2017-12-01T12:44:11.263Z,97833.88
2017-12-01T12:46:41.954Z,97834.97
2017-12-01T12:49:10.241Z,97841.67
2017-12-01T12:51:38.530Z,97840.97
2017-12-01T12:54:06.817Z,97839.44
2017-12-01T12:56:35.109Z,97841.88
2017-12-01T12:59:03.395Z,97842.08
2017-12-01T13:01:31.682Z,97850.64
2017-12-01T13:04:00.854Z,97851.91
2017-12-01T13:06:29.144Z,97854.41
2017-12-01T13:08:57.445Z,97859.84
2017-12-01T13:11:26.678Z,97856.73
2017-12-01T13:13:54.969Z,97857.05
2017-12-01T13:16:23.273Z,97860.33
2017-12-01T13:18:51.564Z,97858.06
2017-12-01T13:21:19.848Z,97862.80
2017-12-01T13:23:48.900Z,97867.89
2017-12-01T13:26:17.189Z,97869.64
2017-12-01T13:28:45.496Z,97867.20
2017-12-01T13:31:13.784Z,97872.91
2017-12-01T13:33:42.069Z,97866.63
2017-12-01T13:36:10.349Z,97875.03
2017-12-01T13:38:38.628Z,97873.02
2017-12-01T13:41:06.933Z,97873.70
2017-12-01T13:43:35.236Z,97881.84
2017-12-01T13:46:03.532Z,97880.59
2017-12-01T13:48:31.825Z,97890.30
2017-12-01T13:51:00.129Z,97884.44
2017-12-01T13:53:28.416Z,97881.80
2017-12-01T13:55:56.706Z,97887.28
2017-12-01T13:58:25.027Z,97888.98
2017-12-01T14:00:53.317Z,97896.86
2017-12-01T14:03:21.608Z,97896.83
2017-12-01T14:05:49.891Z,97898.54
2017-12-01T14:08:18.184Z,97906.61
2017-12-01T14:10:46.478Z,97911.64
2017-12-01T14:13:14.769Z,97909.52
2017-12-01T14:15:43.073Z,97912.14
2017-12-01T14:18:11.369Z,97918.22
2017-12-01T14:20:39.661Z,97922.38
2017-12-01T14:23:07.968Z,97923.23
2017-12-01T14:25:36.260Z,97930.12
2017-12-01T14:28:04.544Z,97931.38
2017-12-01T14:30:32.826Z,97933.07
2017-12-01T14:33:01.116Z,97944.77
2017-12-01T14:35:29.406Z,97940.55
2017-12-01T14:37:57.700Z,97952.21
2017-12-01T14:40:25.989Z,97958.41
2017-12-01T14:42:54.272Z,97963.07
2017-12-01T14:45:22.555Z,97965.34
2017-12-01T14:47:50.852Z,97974.97
2017-12-01T14:50:19.141Z,97973.77
2017-12-01T14:52:47.445Z,97975.38
2017-12-01T14:55:15.736Z,97981.38
2017-12-01T14:57:44.016Z,97983.21
2017-12-01T15:00:12.295Z,97985.75
2017-12-01T15:02:40.577Z,97990.52
2017-12-01T15:05:08.860Z,97993.45
2017-12-01T15:07:37.178Z,97991.88
2017-12-01T15:10:06.893Z,98001.66
2017-12-01T15:12:35.142Z,98008.81
2017-12-01T15:15:03.421Z,98006.77
2017-12-01T15:17:31.704Z,98007.98
2017-12-01T15:19:59.992Z,98020.47
2017-12-01T15:22:28.289Z,98018.38
2017-12-01T15:24:56.622Z,98019.37
2017-12-01T15:27:24.897Z,98022.66
2017-12-01T15:29:53.182Z,98026.42
2017-12-01T15:32:21.466Z,98033.47
2017-12-01T15:34:49.753Z,98031.49
2017-12-01T15:37:18.061Z,98034.04
2017-12-01T15:39:46.371Z,98033.77
2017-12-01T15:42:14.650Z,98042.71
2017-12-01T15:44:43.618Z,98049.97
2017-12-01T15:47:12.660Z,98044.75
2017-12-01T15:49:40.949Z,98048.93
2017-12-01T15:52:09.229Z,98053.80
2017-12-01T15:54:37.517Z,98062.08
2017-12-01T15:57:05.800Z,98063.73
2017-12-01T15:59:34.088Z,98059.66
2017-12-01T16:02:02.369Z,98063.31
2017-12-01T16:04:30.660Z,98067.33
2017-12-01T16:06:58.964Z,98070.94
2017-12-01T16:09:27.252Z,98072.81
2017-12-01T16:11:55.539Z,98080.41
2017-12-01T16:14:23.833Z,98080.28
2017-12-01T16:16:52.122Z,98083.74
2017-12-01T16:19:21.693Z,98085.28
2017-12-01T16:21:49.990Z,98086.85
2017-12-01T16:24:18.303Z,98090.41
2017-12-01T16:26:46.580Z,98088.95
2017-12-01T16:29:14.873Z,98100.86
2017-12-01T16:31:43.341Z,98100.81
2017-12-01T16:34:11.621Z,98107.11
2017-12-01T16:36:40.699Z,98115.44
2017-12-01T16:39:08.988Z,98116.00
2017-12-01T16:41:37.281Z,98122.80
2017-12-01T16:44:05.580Z,98123.23
2017-12-01T16:46:33.870Z,98129.04
2017-12-01T16:49:02.941Z,98125.84
2017-12-01T16:51:31.232Z,98122.94
2017-12-01T16:53:59.528Z,98128.82
2017-12-01T16:56:27.822Z,98131.41
2017-12-01T16:58:56.115Z,98140.21
2017-12-01T17:01:24.479Z,98137.92
2017-12-01T17:03:52.732Z,98140.86
2017-12-01T17:06:21.028Z,98141.93
2017-12-01T17:08:49.824Z,98148.64
2017-12-01T17:11:18.121Z,98152.05
2017-12-01T17:13:46.405Z,98157.59
2017-12-01T17:16:14.690Z,98167.10
2017-12-01T17:18:42.986Z,98177.47
2017-12-01T17:21:11.268Z,98182.56
2017-12-01T17:23:41.272Z,98181.06
2017-12-01T17:26:09.573Z,98191.08
2017-12-01T17:28:37.864Z,98190.38
2017-12-01T17:31:06.904Z,98192.30
2017-12-01T17:33:35.657Z,98194.52
2017-12-01T17:36:03.961Z,98190.12
2017-12-01T17:38:32.252Z,98202.47
2017-12-01T17:41:00.548Z,98209.39
2017-12-01T17:43:28.821Z,98213.97
2017-12-01T17:45:57.111Z,98216.51
2017-12-01T17:48:26.163Z,98221.15
2017-12-01T17:50:54.458Z,98226.08
2017-12-01T17:53:22.739Z,98221.44
2017-12-01T17:55:51.033Z,98223.88
2017-12-01T17:58:19.337Z,98229.52
2017-12-01T18:00:47.625Z,98228.55
2017-12-01T18:03:15.912Z,98228.60
2017-12-01T18:05:44.238Z,98231.44
2017-12-01T18:08:12.547Z,98228.15
2017-12-01T18:10:40.853Z,98238.27
2017-12-01T18:13:09.144Z,98236.72
2017-12-01T18:15:37.426Z,98237.70
2017-12-01T18:18:05.714Z,98245.91
2017-12-01T18:20:33.996Z,98242.73
2017-12-01T18:23:03.056Z,98247.05
2017-12-01T18:25:31.353Z,98249.00
2017-12-01T18:27:59.640Z,98256.11
2017-12-01T18:30:27.925Z,98267.05
2017-12-01T18:32:56.978Z,98271.87
2017-12-01T18:35:25.264Z,98270.59
2017-12-01T18:37:53.584Z,98270.98
2017-12-01T18:40:21.889Z,98276.69
2017-12-01T18:42:50.220Z,98284.22
2017-12-01T18:45:18.511Z,98287.17
2017-12-01T18:47:47.553Z,98282.92
2017-12-01T18:50:16.621Z,98278.14
2017-12-01T18:52:44.973Z,98284.39
2017-12-01T18:55:13.267Z,98291.39
2017-12-01T18:57:41.664Z,98295.44
2017-12-01T19:00:10.029Z,98300.29
2017-12-01T19:02:38.321Z,98297.17
2017-12-01T19:05:06.607Z,98301.30
2017-12-01T19:07:35.002Z,98298.11
2017-12-01T19:10:03.375Z,98311.75
2017-12-01T19:12:31.861Z,98307.09
2017-12-01T19:15:00.196Z,98313.30
2017-12-01T19:17:28.626Z,98315.46
2017-12-01T19:19:57.291Z,98303.52
2017-12-01T19:22:26.110Z,98313.46
2017-12-01T19:24:54.834Z,98313.22
2017-12-01T19:27:23.654Z,98320.59
2017-12-01T19:29:52.935Z,98322.98
2017-12-01T19:32:22.161Z,98323.80
2017-12-01T19:34:51.298Z,98326.23
2017-12-01T19:37:21.166Z,98326.72
2017-12-01T19:39:51.311Z,98328.43
2017-12-01T19:42:21.173Z,98328.78
2017-12-01T19:44:50.750Z,98332.39
2017-12-01T19:47:20.683Z,98338.70
2017-12-01T19:49:50.697Z,98339.55
2017-12-01T19:52:20.353Z,98339.67
2017-12-01T19:54:50.161Z,98342.78
2017-12-01T19:57:19.956Z,98348.92
2017-12-01T19:59:49.644Z,98352.38
2017-12-01T20:02:19.344Z,98356.48
2017-12-01T20:04:49.822Z,98354.29
2017-12-01T20:07:19.700Z,98359.05
2017-12-01T20:09:49.625Z,98353.80
2017-12-01T20:12:20.540Z,98357.94
2017-12-01T20:14:51.188Z,98362.74
2017-12-01T20:17:21.269Z,98365.11
2017-12-01T20:19:51.119Z,98364.56
2017-12-01T20:22:21.032Z,98368.72
2017-12-01T20:24:51.074Z,98373.53
2017-12-01T20:27:21.075Z,98381.88
2017-12-01T20:29:51.154Z,98370.18
2017-12-01T20:32:21.189Z,98370.72
2017-12-01T20:34:51.156Z,98377.59
2017-12-01T20:37:20.969Z,98379.64
2017-12-01T20:39:51.061Z,98377.67
2017-12-01T20:42:21.009Z,98381.05
2017-12-01T20:44:50.880Z,98394.67
2017-12-01T20:47:20.767Z,98389.81
2017-12-01T20:49:51.079Z,98391.48
2017-12-01T20:52:21.927Z,98393.53
2017-12-01T20:54:52.033Z,98394.77
2017-12-01T20:57:22.011Z,98397.74
2017-12-01T20:59:51.975Z,98397.20
2017-12-01T21:02:22.694Z,98396.03
2017-12-01T21:04:52.548Z,98398.98
2017-12-01T21:07:23.213Z,98403.33
2017-12-01T21:09:53.225Z,98406.48
2017-12-01T21:12:23.071Z,98412.83
2017-12-01T21:14:53.685Z,98417.91
2017-12-01T21:17:24.224Z,98419.10
2017-12-01T21:19:54.068Z,98425.91
2017-12-01T21:22:24.722Z,98426.33
2017-12-01T21:24:54.594Z,98426.68
2017-12-01T21:27:24.549Z,98427.96
2017-12-01T21:29:55.274Z,98434.92
2017-12-01T21:32:25.957Z,98435.33
2017-12-01T21:34:56.700Z,98440.14
2017-12-01T21:37:27.317Z,98437.49
2017-12-01T21:39:57.132Z,98434.39
2017-12-01T21:42:26.767Z,98440.08
2017-12-01T21:44:55.907Z,98439.39
2017-12-01T21:47:26.418Z,98437.80
2017-12-01T21:49:55.364Z,98437.22
2017-12-01T21:52:24.704Z,98449.08
2017-12-01T21:54:53.673Z,98445.58
2017-12-01T21:57:22.598Z,98446.36
2017-12-01T21:59:51.224Z,98445.38
2017-12-01T22:02:20.751Z,98449.02
2017-12-01T22:04:49.137Z,98447.05
2017-12-01T22:07:23.585Z,98440.66
2017-12-01T22:09:52.026Z,98439.90
2017-12-01T22:12:20.455Z,98439.03
2017-12-01T22:14:48.773Z,98435.39
2017-12-01T22:17:17.359Z,98433.84
2017-12-01T22:19:45.665Z,98440.61
2017-12-01T22:22:14.710Z,98441.50
2017-12-01T22:24:42.983Z,98444.81
2017-12-01T22:27:11.288Z,98446.84
2017-12-01T22:29:40.117Z,98452.92
2017-12-01T22:32:08.421Z,98454.02
2017-12-01T22:34:36.721Z,98453.22
2017-12-01T22:37:05.387Z,98466.23
2017-12-01T22:39:33.680Z,98461.94
2017-12-01T22:42:02.590Z,98465.66
2017-12-01T22:44:30.920Z,98460.19
2017-12-01T22:46:59.247Z,98460.73
2017-12-01T22:49:27.546Z,98460.52
2017-12-01T22:51:55.841Z,98464.97
2017-12-01T22:54:24.156Z,98466.20
2017-12-01T22:56:52.484Z,98463.97
2017-12-01T22:59:20.817Z,98468.76
2017-12-01T23:01:49.110Z,98471.82
2017-12-01T23:04:17.413Z,98472.11
2017-12-01T23:06:45.717Z,98475.30
2017-12-01T23:09:14.038Z,98472.67
2017-12-01T23:11:42.376Z,98478.16
2017-12-01T23:14:10.742Z,98485.96
2017-12-01T23:16:39.071Z,98480.71
2017-12-01T23:19:07.389Z,98487.13
2017-12-01T23:21:35.717Z,98488.06
2017-12-01T23:24:04.783Z,98486.16
2017-12-01T23:26:33.098Z,98492.59
2017-12-01T23:29:02.159Z,98485.06
2017-12-01T23:31:30.479Z,98489.32
2017-12-01T23:33:58.825Z,98483.27
2017-12-01T23:36:27.141Z,98482.69
2017-12-01T23:38:55.498Z,98486.06
2017-12-01T23:41:23.812Z,98488.14
2017-12-01T23:43:53.593Z,98492.58
2017-12-01T23:46:22.686Z,98489.77
2017-12-01T23:48:50.998Z,98493.72
2017-12-01T23:51:19.327Z,98493.70
2017-12-01T23:53:47.644Z,98492.25
2017-12-01T23:56:15.963Z,98494.14
2017-12-01T23:58:44.312Z,98500.59
